createdAt,value
2022-10-01T00:20:56.163Z,1014.05
2022-10-01T00:49:37.669Z,1014.17
2022-10-01T01:18:05.157Z,1013.91
2022-10-01T01:46:40.499Z,1013.51
2022-10-01T02:15:25.313Z,1013.17
2022-10-01T02:44:05.463Z,1012.88
2022-10-01T03:12:47.325Z,1012.91
2022-10-01T03:41:29.190Z,1012.96
2022-10-01T04:10:15.477Z,1012.6
2022-10-01T04:39:03.586Z,1012.62
2022-10-01T05:07:22.594Z,1012.41
2022-10-01T05:36:01.020Z,1012.33
2022-10-01T06:04:42.748Z,1011.88
2022-10-01T06:33:10.204Z,1011.59
2022-10-01T07:01:56.995Z,1011.34
2022-10-01T07:30:05.576Z,1011.35
2022-10-01T07:58:49.481Z,1011.72
2022-10-01T08:27:17.799Z,1011.8
2022-10-01T08:55:53.674Z,1011.94
2022-10-01T09:24:24.415Z,1012.07
2022-10-01T09:52:55.244Z,1012.54
2022-10-01T10:21:28.592Z,1012.56
2022-10-01T10:49:59.439Z,1012.84
2022-10-01T11:18:28.270Z,1012.96
2022-10-01T11:47:04.216Z,1013.02
2022-10-01T12:15:37.124Z,1013.15
2022-10-01T12:44:06.184Z,1013.27
2022-10-01T13:12:52.169Z,1013.5
2022-10-01T13:41:36.286Z,1013.8
2022-10-01T14:10:02.453Z,1014.08
2022-10-01T14:38:25.978Z,1014.28
2022-10-01T15:06:53.904Z,1013.93
2022-10-01T15:35:30.193Z,1014.28
2022-10-01T16:04:12.517Z,1014.58
2022-10-01T16:32:49.741Z,1014.97
2022-10-01T17:01:15.267Z,1015.16
2022-10-01T17:29:45.904Z,1015.49
2022-10-01T17:58:00.760Z,1016.23
2022-10-01T18:26:40.335Z,1016.41
2022-10-01T18:55:00.753Z,1016.92
2022-10-01T19:23:16.054Z,1017.46
2022-10-01T19:51:49.483Z,1017.69
2022-10-01T20:20:25.988Z,1018.11
2022-10-01T20:48:50.456Z,1018.32
2022-10-01T21:17:23.889Z,1018.73
2022-10-01T21:45:59.226Z,1018.94
2022-10-01T22:14:32.343Z,1019.38
2022-10-01T22:43:32.462Z,1019.75
2022-10-01T23:11:49.152Z,1019.83
2022-10-01T23:40:34.185Z,1020.13
